createdAt,value
2017-12-19T07:03:58.376Z,0
2017-12-19T07:05:07.457Z,0
2017-12-19T07:06:16.263Z,0
2017-12-19T07:07:24.798Z,0
2017-12-19T07:08:33.648Z,0
2017-12-19T07:09:42.182Z,0
2017-12-19T07:10:50.981Z,0
2017-12-19T07:12:00.054Z,0
2017-12-19T07:13:08.585Z,0
2017-12-19T07:14:17.380Z,0
2017-12-19T07:15:26.184Z,0
2017-12-19T07:16:34.984Z,0
2017-12-19T07:17:44.058Z,0
2017-12-19T07:18:53.403Z,0
2017-12-19T07:20:01.986Z,0
2017-12-19T07:21:10.859Z,0
2017-12-19T07:22:19.664Z,0
2017-12-19T07:23:28.466Z,0
2017-12-19T07:24:37.267Z,0
2017-12-19T07:25:45.847Z,0
2017-12-19T07:26:54.915Z,0
2017-12-19T07:28:03.447Z,0
2017-12-19T07:29:11.978Z,0
2017-12-19T07:30:21.050Z,0
2017-12-19T07:31:30.167Z,0
2017-12-19T07:32:38.701Z,0
2017-12-19T07:33:48.106Z,0
2017-12-19T07:34:56.904Z,5
2017-12-19T07:36:05.977Z,5
2017-12-19T07:37:15.110Z,5
2017-12-19T07:38:24.174Z,5
2017-12-19T07:39:32.711Z,5
2017-12-19T07:40:41.883Z,5
2017-12-19T07:41:50.802Z,5
2017-12-19T07:42:59.970Z,5
2017-12-19T07:44:08.724Z,5
2017-12-19T07:45:17.287Z,5
2017-12-19T07:46:26.174Z,5
2017-12-19T07:47:35.683Z,5
2017-12-19T07:48:44.787Z,5
2017-12-19T07:49:53.857Z,5
2017-12-19T07:51:03.251Z,5
2017-12-19T07:52:12.318Z,10
2017-12-19T07:53:20.853Z,10
2017-12-19T07:54:29.702Z,10
2017-12-19T07:55:38.274Z,10
2017-12-19T07:56:47.082Z,10
2017-12-19T07:57:55.885Z,15
2017-12-19T07:59:04.697Z,15
2017-12-19T08:00:13.768Z,15
2017-12-19T08:01:22.300Z,15
2017-12-19T08:02:31.108Z,15
2017-12-19T08:03:39.910Z,15
2017-12-19T08:04:48.442Z,15
2017-12-19T08:05:57.562Z,20
2017-12-19T08:07:06.097Z,20
2017-12-19T08:08:14.633Z,20
2017-12-19T08:09:23.444Z,20
2017-12-19T08:10:32.281Z,20
2017-12-19T08:11:40.864Z,20
2017-12-19T08:12:49.405Z,25
2017-12-19T08:13:57.943Z,25
2017-12-19T08:15:06.534Z,25
2017-12-19T08:16:15.276Z,25
2017-12-19T08:17:24.698Z,25
2017-12-19T08:18:33.767Z,25
2017-12-19T08:19:42.379Z,25
2017-12-19T08:20:51.473Z,25
2017-12-19T08:22:00.061Z,30
2017-12-19T08:23:09.498Z,30
2017-12-19T08:24:18.031Z,25
2017-12-19T08:25:26.716Z,30
2017-12-19T08:26:35.590Z,30
2017-12-19T08:27:44.406Z,30
2017-12-19T08:28:53.126Z,30
2017-12-19T08:30:01.930Z,30
2017-12-19T08:31:11.277Z,35
2017-12-19T08:32:20.485Z,30
2017-12-19T08:33:29.019Z,35
2017-12-19T08:34:38.129Z,35
2017-12-19T08:35:46.959Z,35
2017-12-19T08:36:55.491Z,40
2017-12-19T08:38:04.294Z,40
2017-12-19T08:39:13.102Z,40
2017-12-19T08:40:21.688Z,40
2017-12-19T08:41:30.490Z,45
2017-12-19T08:42:39.293Z,45
2017-12-19T08:43:47.827Z,45
2017-12-19T08:44:56.677Z,50
2017-12-19T08:46:05.220Z,50
2017-12-19T08:47:14.289Z,50
2017-12-19T08:48:23.220Z,50
2017-12-19T08:49:31.880Z,50
2017-12-19T08:50:40.525Z,50
2017-12-19T08:51:49.374Z,50
2017-12-19T08:52:58.446Z,50
2017-12-19T08:54:07.265Z,45
2017-12-19T08:55:16.335Z,40
2017-12-19T08:56:25.150Z,40
2017-12-19T08:57:33.953Z,40
2017-12-19T08:58:43.025Z,35
2017-12-19T08:59:51.880Z,35
2017-12-19T09:01:00.415Z,35
2017-12-19T09:02:09.217Z,35
2017-12-19T09:03:18.073Z,40
2017-12-19T09:04:27.409Z,40
2017-12-19T09:05:36.477Z,40
2017-12-19T09:06:45.041Z,35
2017-12-19T09:07:53.841Z,35
2017-12-19T09:09:02.643Z,35
2017-12-19T09:10:11.445Z,40
2017-12-19T09:11:19.982Z,40
2017-12-19T09:12:28.519Z,40
2017-12-19T09:13:37.321Z,40
2017-12-19T09:14:45.904Z,40
2017-12-19T09:15:54.707Z,40
2017-12-19T09:17:03.242Z,40
2017-12-19T09:18:12.045Z,40
2017-12-19T09:19:20.848Z,40
2017-12-19T09:20:30.409Z,45
2017-12-19T09:21:38.990Z,45
2017-12-19T09:22:48.031Z,45
2017-12-19T09:23:58.050Z,50
2017-12-19T09:25:07.056Z,55
2017-12-19T09:26:16.499Z,55
2017-12-19T09:27:25.822Z,55
2017-12-19T09:28:35.449Z,55
2017-12-19T09:29:44.259Z,65
2017-12-19T09:30:52.794Z,75
2017-12-19T09:32:01.593Z,75
2017-12-19T09:33:10.660Z,70
2017-12-19T09:34:19.459Z,65
2017-12-19T09:35:28.430Z,65
2017-12-19T09:36:37.606Z,60
2017-12-19T09:37:47.399Z,60
2017-12-19T09:38:56.199Z,65
2017-12-19T09:40:04.772Z,70
2017-12-19T09:41:13.576Z,65
2017-12-19T09:42:22.671Z,65
2017-12-19T09:43:31.208Z,65
2017-12-19T09:44:40.028Z,70
2017-12-19T09:45:49.099Z,75
2017-12-19T09:46:57.899Z,65
2017-12-19T09:48:07.451Z,60
2017-12-19T09:49:16.311Z,65
2017-12-19T09:50:24.869Z,65
2017-12-19T09:51:34.474Z,65
2017-12-19T09:52:43.283Z,65
2017-12-19T09:53:52.083Z,65
2017-12-19T09:55:00.636Z,70
2017-12-19T09:56:09.246Z,70
2017-12-19T09:57:18.024Z,65
2017-12-19T09:58:26.825Z,60
2017-12-19T09:59:35.627Z,70
2017-12-19T10:00:44.479Z,70
2017-12-19T10:01:53.010Z,65
2017-12-19T10:03:01.814Z,65
2017-12-19T10:04:10.350Z,70
2017-12-19T10:05:19.414Z,70
2017-12-19T10:06:28.481Z,65
2017-12-19T10:07:37.063Z,60
2017-12-19T10:08:45.860Z,65
2017-12-19T10:09:54.668Z,60
2017-12-19T10:11:03.470Z,65
2017-12-19T10:12:12.323Z,55
2017-12-19T10:13:21.395Z,60
2017-12-19T10:14:30.201Z,55
2017-12-19T10:15:39.247Z,60
2017-12-19T10:16:47.831Z,65
2017-12-19T10:17:56.687Z,70
2017-12-19T10:19:05.217Z,60
2017-12-19T10:20:14.022Z,55
2017-12-19T10:21:22.851Z,55
2017-12-19T10:22:31.655Z,55
2017-12-19T10:23:40.457Z,60
2017-12-19T10:24:49.322Z,60
2017-12-19T10:25:57.845Z,60
2017-12-19T10:27:06.384Z,60
2017-12-19T10:28:14.930Z,65
2017-12-19T10:29:23.780Z,70
2017-12-19T10:30:32.871Z,65
2017-12-19T10:31:41.937Z,70
2017-12-19T10:32:50.817Z,70
2017-12-19T10:33:59.830Z,70
2017-12-19T10:35:08.965Z,70
2017-12-19T10:36:18.195Z,70
2017-12-19T10:37:27.284Z,70
2017-12-19T10:38:36.088Z,70
2017-12-19T10:39:44.894Z,60
2017-12-19T10:40:53.429Z,55
2017-12-19T10:42:02.549Z,65
2017-12-19T10:43:11.359Z,70
2017-12-19T10:44:19.905Z,75
2017-12-19T10:45:29.031Z,85
2017-12-19T10:46:37.900Z,85
2017-12-19T10:47:47.234Z,80
2017-12-19T10:48:55.767Z,85
2017-12-19T10:50:04.577Z,85
2017-12-19T10:51:13.384Z,85
2017-12-19T10:52:22.491Z,85
2017-12-19T10:53:31.032Z,90
2017-12-19T10:54:39.836Z,85
2017-12-19T10:55:48.639Z,85
2017-12-19T10:56:57.193Z,100
2017-12-19T10:58:05.777Z,110
2017-12-19T10:59:14.844Z,120
2017-12-19T11:00:23.647Z,120
2017-12-19T11:01:32.452Z,125
2017-12-19T11:02:40.996Z,130
2017-12-19T11:03:49.531Z,120
2017-12-19T11:04:58.064Z,110
2017-12-19T11:06:06.867Z,95
2017-12-19T11:07:15.401Z,95
2017-12-19T11:08:24.466Z,95
2017-12-19T11:09:33.266Z,100
2017-12-19T11:10:42.097Z,105
2017-12-19T11:11:51.164Z,110
2017-12-19T11:13:00.509Z,110
2017-12-19T11:14:09.607Z,110
2017-12-19T11:15:20.686Z,120
2017-12-19T11:16:29.760Z,130
2017-12-19T11:17:38.561Z,120
2017-12-19T11:18:47.107Z,120
2017-12-19T11:19:55.645Z,125
2017-12-19T11:21:04.578Z,120
2017-12-19T11:22:13.381Z,115
2017-12-19T11:23:22.716Z,110
2017-12-19T11:24:31.250Z,105
2017-12-19T11:25:39.785Z,115
2017-12-19T11:26:48.587Z,110
2017-12-19T11:27:57.387Z,110
2017-12-19T11:29:06.185Z,100
2017-12-19T11:30:15.252Z,105
2017-12-19T11:31:23.791Z,115
2017-12-19T11:32:32.911Z,115
2017-12-19T11:33:41.710Z,115
2017-12-19T11:34:50.779Z,120
2017-12-19T11:35:59.579Z,115
2017-12-19T11:37:08.684Z,120
2017-12-19T11:38:17.528Z,115
2017-12-19T11:39:26.033Z,105
2017-12-19T11:40:35.103Z,105
2017-12-19T11:41:43.636Z,105
2017-12-19T11:42:52.440Z,105
2017-12-19T11:44:01.274Z,105
2017-12-19T11:45:10.073Z,110
2017-12-19T11:46:18.612Z,125
2017-12-19T11:47:27.413Z,130
2017-12-19T11:48:35.946Z,135
2017-12-19T11:49:45.286Z,140
2017-12-19T11:50:54.088Z,130
2017-12-19T11:52:02.900Z,125
2017-12-19T11:53:11.719Z,130
2017-12-19T11:54:20.835Z,125
2017-12-19T11:55:29.670Z,125
2017-12-19T11:56:38.783Z,125
2017-12-19T11:57:47.586Z,125
2017-12-19T11:58:56.123Z,120
2017-12-19T12:00:04.655Z,120
2017-12-19T12:01:13.204Z,120
2017-12-19T12:02:21.737Z,115
2017-12-19T12:03:30.274Z,115
2017-12-19T12:04:39.616Z,125
2017-12-19T12:05:48.684Z,130
2017-12-19T12:06:57.803Z,120
2017-12-19T12:08:06.876Z,110
2017-12-19T12:09:15.943Z,115
2017-12-19T12:10:25.009Z,135
2017-12-19T12:11:33.811Z,145
2017-12-19T12:12:42.667Z,130
2017-12-19T12:13:51.468Z,130
2017-12-19T12:15:00.542Z,135
2017-12-19T12:16:09.344Z,140
2017-12-19T12:17:18.158Z,140
2017-12-19T12:18:26.695Z,130
2017-12-19T12:19:35.498Z,120
2017-12-19T12:20:44.568Z,105
2017-12-19T12:21:53.366Z,105
2017-12-19T12:23:01.902Z,100
2017-12-19T12:24:10.788Z,105
2017-12-19T12:25:19.591Z,100
2017-12-19T12:26:28.391Z,95
2017-12-19T12:27:36.969Z,90
2017-12-19T12:28:45.503Z,100
2017-12-19T12:29:54.575Z,95
2017-12-19T12:31:03.643Z,90
2017-12-19T12:32:12.462Z,90
2017-12-19T12:33:21.267Z,100
2017-12-19T12:34:30.069Z,100
2017-12-19T12:35:38.655Z,90
2017-12-19T12:36:47.586Z,95
2017-12-19T12:37:56.438Z,80
2017-12-19T12:39:04.974Z,75
2017-12-19T12:40:13.775Z,85
2017-12-19T12:41:23.026Z,80
2017-12-19T12:42:31.560Z,95
2017-12-19T12:43:40.368Z,95
2017-12-19T12:44:49.172Z,100
2017-12-19T12:45:57.705Z,90
2017-12-19T12:47:06.822Z,95
2017-12-19T12:48:15.374Z,100
2017-12-19T12:49:24.177Z,115
2017-12-19T12:50:32.726Z,120
2017-12-19T12:51:41.260Z,120
2017-12-19T12:52:50.099Z,125
2017-12-19T12:53:59.166Z,130
2017-12-19T12:55:07.702Z,125
2017-12-19T12:56:16.269Z,125
2017-12-19T12:57:25.087Z,125
2017-12-19T12:58:33.622Z,120
2017-12-19T12:59:42.423Z,120
2017-12-19T13:00:51.223Z,120
2017-12-19T13:01:59.762Z,115
2017-12-19T13:03:08.569Z,105
2017-12-19T13:04:17.105Z,100
2017-12-19T13:05:25.910Z,100
2017-12-19T13:06:34.448Z,90
2017-12-19T13:07:42.985Z,85
2017-12-19T13:08:51.518Z,85
2017-12-19T13:10:00.105Z,85
2017-12-19T13:11:08.639Z,85
2017-12-19T13:12:17.508Z,85
2017-12-19T13:13:26.043Z,85
2017-12-19T13:14:34.580Z,85
2017-12-19T13:15:43.114Z,85
2017-12-19T13:16:51.919Z,85
2017-12-19T13:18:00.456Z,85
2017-12-19T13:19:09.534Z,85
2017-12-19T13:20:18.333Z,85
2017-12-19T13:21:26.921Z,85
2017-12-19T13:22:35.458Z,80
2017-12-19T13:23:44.264Z,80
2017-12-19T13:24:52.839Z,75
2017-12-19T13:26:01.374Z,75
2017-12-19T13:27:10.175Z,70
2017-12-19T13:28:18.712Z,70
2017-12-19T13:29:27.779Z,70
2017-12-19T13:30:36.318Z,70
2017-12-19T13:31:45.118Z,70
2017-12-19T13:32:53.656Z,70
2017-12-19T13:34:02.726Z,70
2017-12-19T13:35:11.533Z,70
2017-12-19T13:36:20.344Z,70
2017-12-19T13:37:29.198Z,70
2017-12-19T13:38:38.007Z,70
2017-12-19T13:39:46.543Z,70
2017-12-19T13:40:55.612Z,65
2017-12-19T13:42:04.682Z,65
2017-12-19T13:43:13.754Z,60
2017-12-19T13:44:22.871Z,60
2017-12-19T13:45:31.675Z,65
2017-12-19T13:46:41.070Z,65
2017-12-19T13:47:49.872Z,60
2017-12-19T13:48:58.706Z,60
2017-12-19T13:50:07.243Z,60
2017-12-19T13:51:16.121Z,60
2017-12-19T13:52:24.926Z,60
2017-12-19T13:53:33.463Z,55
2017-12-19T13:54:42.027Z,55
2017-12-19T13:55:51.051Z,55
2017-12-19T13:56:59.903Z,55
2017-12-19T13:58:08.745Z,60
2017-12-19T13:59:17.437Z,60
2017-12-19T14:00:25.973Z,65
2017-12-19T14:01:35.041Z,60
2017-12-19T14:02:43.842Z,60
2017-12-19T14:03:52.387Z,60
2017-12-19T14:05:01.456Z,60
2017-12-19T14:06:10.525Z,60
2017-12-19T14:07:19.417Z,60
2017-12-19T14:08:28.224Z,55
2017-12-19T14:09:37.281Z,55
2017-12-19T14:10:46.444Z,50
2017-12-19T14:11:55.251Z,50
2017-12-19T14:13:04.054Z,50
2017-12-19T14:14:12.878Z,50
2017-12-19T14:15:21.418Z,50
2017-12-19T14:16:30.225Z,45
2017-12-19T14:17:39.592Z,45
2017-12-19T14:18:48.995Z,45
2017-12-19T14:19:57.528Z,45
2017-12-19T14:21:06.328Z,45
2017-12-19T14:22:15.233Z,45
2017-12-19T14:23:24.099Z,45
2017-12-19T14:24:32.634Z,40
2017-12-19T14:25:41.441Z,40
2017-12-19T14:26:50.237Z,40
2017-12-19T14:27:59.071Z,40
2017-12-19T14:29:07.871Z,35
2017-12-19T14:30:16.406Z,35
2017-12-19T14:31:25.210Z,35
2017-12-19T14:32:34.277Z,30
2017-12-19T14:33:43.105Z,30
2017-12-19T14:34:51.911Z,30
2017-12-19T14:36:00.765Z,30
2017-12-19T14:37:09.571Z,30
2017-12-19T14:38:18.379Z,25
2017-12-19T14:39:27.173Z,25
2017-12-19T14:40:35.970Z,25
2017-12-19T14:41:44.518Z,25
2017-12-19T14:42:53.334Z,25
2017-12-19T14:44:01.870Z,25
2017-12-19T14:45:10.676Z,20
2017-12-19T14:46:19.208Z,20
2017-12-19T14:47:27.751Z,20
2017-12-19T14:48:36.565Z,20
2017-12-19T14:49:45.382Z,15
2017-12-19T14:50:54.193Z,15
2017-12-19T14:52:02.996Z,15
2017-12-19T14:53:11.853Z,15
2017-12-19T14:54:20.914Z,15
2017-12-19T14:55:29.716Z,15
2017-12-19T14:56:38.518Z,10
2017-12-19T14:57:47.586Z,10
2017-12-19T14:58:56.180Z,10
2017-12-19T15:00:04.717Z,10
2017-12-19T15:01:13.311Z,10
2017-12-19T15:02:22.147Z,10
2017-12-19T15:03:30.680Z,10
2017-12-19T15:04:39.542Z,10
2017-12-19T15:05:48.078Z,10
2017-12-19T15:06:56.921Z,5
2017-12-19T15:08:05.457Z,5
2017-12-19T15:09:13.992Z,5
2017-12-19T15:10:22.524Z,5
2017-12-19T15:11:31.324Z,5
2017-12-19T15:12:40.123Z,5
2017-12-19T15:13:49.192Z,5
2017-12-19T15:14:58.269Z,5
2017-12-19T15:16:06.856Z,5
2017-12-19T15:17:15.398Z,5
2017-12-19T15:18:24.199Z,5
2017-12-19T15:19:33.001Z,5
2017-12-19T15:20:41.800Z,0
2017-12-19T15:21:50.602Z,0
2017-12-19T15:22:59.403Z,0
2017-12-19T15:24:07.941Z,0
2017-12-19T15:25:16.761Z,0
2017-12-19T15:26:25.837Z,0
2017-12-19T15:27:34.424Z,0
2017-12-19T15:28:43.492Z,0
2017-12-19T15:29:52.082Z,0
2017-12-19T15:31:00.615Z,0
2017-12-19T15:32:09.156Z,0
2017-12-19T15:33:18.006Z,0
2017-12-19T15:34:26.804Z,0
2017-12-19T15:35:35.608Z,0
2017-12-19T15:36:44.949Z,0
2017-12-19T15:37:54.043Z,0
2017-12-19T15:39:02.843Z,0
2017-12-19T15:40:11.655Z,0
2017-12-19T15:41:20.458Z,0
2017-12-19T15:42:29.255Z,0
2017-12-19T15:43:38.060Z,0
2017-12-19T15:44:47.686Z,0
2017-12-19T15:45:56.221Z,0
2017-12-19T15:47:04.757Z,0
2017-12-19T15:48:13.291Z,0
2017-12-19T15:49:22.096Z,0
2017-12-19T15:50:30.689Z,0
2017-12-19T15:51:39.769Z,0
2017-12-19T15:52:48.326Z,0
2017-12-19T15:53:56.859Z,0
2017-12-19T15:55:05.721Z,0
2017-12-19T15:56:14.791Z,0
2017-12-19T15:57:23.325Z,0
2017-12-19T15:58:32.125Z,0
2017-12-19T15:59:40.926Z,0
2017-12-19T16:00:49.730Z,0
2017-12-19T16:01:58.314Z,0
2017-12-19T16:03:07.381Z,0
2017-12-19T16:04:16.448Z,0
2017-12-19T16:05:25.518Z,0
2017-12-19T16:06:35.123Z,0
2017-12-19T16:07:43.924Z,0
2017-12-19T16:08:52.461Z,0
2017-12-19T16:10:01.266Z,0
2017-12-19T16:11:09.805Z,0
2017-12-19T16:12:18.609Z,0
2017-12-19T16:13:27.677Z,0
2017-12-19T16:14:36.477Z,0
2017-12-19T16:15:45.548Z,0
2017-12-19T16:16:54.354Z,0
2017-12-19T16:18:03.153Z,0
2017-12-19T16:19:12.226Z,0
2017-12-19T16:20:21.029Z,0
2017-12-19T16:21:30.098Z,0
2017-12-19T16:22:38.899Z,0
2017-12-19T16:23:47.700Z,0
2017-12-19T16:24:56.552Z,0
2017-12-19T16:26:05.358Z,0
2017-12-19T16:27:14.168Z,0
2017-12-19T16:28:22.707Z,0
2017-12-19T16:29:31.243Z,0
2017-12-19T16:30:40.315Z,0
2017-12-19T16:31:48.850Z,0
2017-12-19T16:32:57.655Z,0
2017-12-19T16:34:06.455Z,0
2017-12-19T16:35:15.527Z,0
2017-12-19T16:36:24.647Z,0
2017-12-19T16:37:33.718Z,0
2017-12-19T16:38:42.516Z,0
2017-12-19T16:39:51.318Z,0
2017-12-19T16:40:59.851Z,0
2017-12-19T16:42:08.659Z,0
2017-12-19T16:43:17.192Z,0
2017-12-19T16:44:25.725Z,0
2017-12-19T16:45:34.261Z,0
2017-12-19T16:46:43.063Z,0
2017-12-19T16:47:51.922Z,0
2017-12-19T16:49:00.725Z,0
2017-12-19T16:50:09.797Z,0
2017-12-19T16:51:18.622Z,0
2017-12-19T16:52:27.707Z,0
2017-12-19T16:53:36.506Z,0
2017-12-19T16:54:45.043Z,0
2017-12-19T16:55:53.578Z,0
2017-12-19T16:57:02.116Z,0
2017-12-19T16:58:10.921Z,0
2017-12-19T16:59:20.039Z,0
2017-12-19T17:00:28.839Z,0
2017-12-19T17:01:37.372Z,0
2017-12-19T17:02:46.171Z,0
2017-12-19T17:03:54.707Z,0
2017-12-19T17:05:03.561Z,0
2017-12-19T17:06:12.094Z,0
2017-12-19T17:07:20.627Z,0
2017-12-19T17:08:29.435Z,0
2017-12-19T17:09:37.969Z,0
2017-12-19T17:10:46.769Z,0
2017-12-19T17:11:55.572Z,0
2017-12-19T17:13:04.641Z,0
2017-12-19T17:14:13.179Z,0
2017-12-19T17:15:22.251Z,0
2017-12-19T17:16:31.089Z,0
2017-12-19T17:17:39.689Z,0
2017-12-19T17:18:48.512Z,0
2017-12-19T17:19:57.046Z,0
2017-12-19T17:21:06.383Z,0
2017-12-19T17:22:15.513Z,0
2017-12-19T17:23:24.047Z,0
2017-12-19T17:24:32.847Z,0
2017-12-19T17:25:41.979Z,0
2017-12-19T17:26:50.516Z,0
2017-12-19T17:27:59.317Z,0
2017-12-19T17:29:08.118Z,0
2017-12-19T17:30:16.926Z,0
2017-12-19T17:31:25.459Z,0
2017-12-19T17:32:33.991Z,0
2017-12-19T17:33:42.792Z,0
2017-12-19T17:34:51.858Z,0
2017-12-19T17:36:00.659Z,0
2017-12-19T17:37:09.192Z,0
2017-12-19T17:38:17.726Z,0
2017-12-19T17:39:26.576Z,0
2017-12-19T17:40:35.111Z,0
2017-12-19T17:41:43.642Z,0
2017-12-19T17:42:52.194Z,0
2017-12-19T17:44:01.261Z,0
2017-12-19T17:45:10.064Z,0
2017-12-19T17:46:19.136Z,0
2017-12-19T17:47:28.043Z,0
2017-12-19T17:48:36.843Z,0
2017-12-19T17:49:45.645Z,0
2017-12-19T17:50:54.182Z,0
2017-12-19T17:52:03.250Z,0
2017-12-19T17:53:12.049Z,0
2017-12-19T17:54:20.580Z,0
2017-12-19T17:55:29.916Z,0
2017-12-19T17:56:38.496Z,0
2017-12-19T17:57:47.563Z,0
2017-12-19T17:58:56.901Z,0
2017-12-19T18:00:05.706Z,0
2017-12-19T18:01:14.776Z,0
2017-12-19T18:02:23.362Z,0
2017-12-19T18:03:32.166Z,0
2017-12-19T18:04:40.966Z,0
2017-12-19T18:05:49.498Z,0
2017-12-19T18:06:58.034Z,0
2017-12-19T18:08:06.568Z,0
2017-12-19T18:09:15.100Z,0
2017-12-19T18:10:23.901Z,0
2017-12-19T18:11:32.434Z,0
2017-12-19T18:12:40.968Z,0
2017-12-19T18:13:49.762Z,0
2017-12-19T18:14:58.299Z,0
2017-12-19T18:16:07.098Z,0
2017-12-19T18:17:15.898Z,0
2017-12-19T18:18:24.696Z,0
2017-12-19T18:19:33.547Z,0
2017-12-19T18:20:42.346Z,0
2017-12-19T18:21:51.412Z,0
2017-12-19T18:23:00.217Z,0
2017-12-19T18:24:09.287Z,0
2017-12-19T18:25:18.085Z,0
2017-12-19T18:26:26.622Z,0
2017-12-19T18:27:35.154Z,0
2017-12-19T18:28:44.232Z,0
2017-12-19T18:29:52.757Z,0
2017-12-19T18:31:01.289Z,0
2017-12-19T18:32:09.823Z,0
2017-12-19T18:33:18.457Z,0
2017-12-19T18:34:27.258Z,0
2017-12-19T18:35:36.323Z,0
2017-12-19T18:36:45.388Z,0
2017-12-19T18:37:53.924Z,0
2017-12-19T18:39:02.723Z,0
2017-12-19T18:40:11.790Z,0
2017-12-19T18:41:20.864Z,0
2017-12-19T18:42:29.658Z,0
2017-12-19T18:43:38.723Z,0
2017-12-19T18:44:47.525Z,0
2017-12-19T18:45:56.599Z,0
2017-12-19T18:47:05.446Z,0
2017-12-19T18:48:13.979Z,0
2017-12-19T18:49:22.784Z,0
2017-12-19T18:50:31.587Z,0
2017-12-19T18:51:40.390Z,0
2017-12-19T18:52:49.192Z,0
2017-12-19T18:53:57.995Z,0
2017-12-19T18:55:06.526Z,0
2017-12-19T18:56:15.596Z,0
2017-12-19T18:57:24.397Z,0
2017-12-19T18:58:33.518Z,0
2017-12-19T18:59:42.322Z,0
2017-12-19T19:00:50.858Z,0
2017-12-19T19:01:59.394Z,0
2017-12-19T19:03:08.463Z,0
2017-12-19T19:04:17.587Z,0
2017-12-19T19:05:26.387Z,0
2017-12-19T19:06:34.921Z,0
2017-12-19T19:07:43.455Z,0
2017-12-19T19:08:52.795Z,0
2017-12-19T19:10:01.595Z,0
2017-12-19T19:11:10.676Z,0
2017-12-19T19:12:19.479Z,0
2017-12-19T19:13:28.011Z,0
2017-12-19T19:14:36.814Z,0
2017-12-19T19:15:45.348Z,0
2017-12-19T19:16:54.688Z,0
2017-12-19T19:18:03.492Z,0
2017-12-19T19:19:12.291Z,0
2017-12-19T19:20:21.091Z,0
2017-12-19T19:21:29.623Z,0
2017-12-19T19:22:38.156Z,0
2017-12-19T19:23:47.227Z,0
2017-12-19T19:24:56.298Z,0
2017-12-19T19:26:04.834Z,0
2017-12-19T19:27:13.635Z,0
2017-12-19T19:28:22.451Z,0
2017-12-19T19:29:31.251Z,0
2017-12-19T19:30:40.060Z,0
2017-12-19T19:31:48.591Z,0
2017-12-19T19:32:57.483Z,0
2017-12-19T19:34:06.012Z,0
2017-12-19T19:35:14.554Z,0
2017-12-19T19:36:23.084Z,0
2017-12-19T19:37:32.150Z,0
2017-12-19T19:38:40.686Z,0
2017-12-19T19:39:49.218Z,0
2017-12-19T19:40:58.300Z,0
2017-12-19T19:42:07.104Z,0
2017-12-19T19:43:15.636Z,0
2017-12-19T19:44:24.753Z,0
2017-12-19T19:45:33.290Z,0
2017-12-19T19:46:42.098Z,0
2017-12-19T19:47:50.629Z,0
2017-12-19T19:48:59.706Z,0
2017-12-19T19:50:08.561Z,0
2017-12-19T19:51:17.363Z,0
2017-12-19T19:52:26.160Z,0
2017-12-19T19:53:34.963Z,0
2017-12-19T19:54:44.031Z,0
2017-12-19T19:55:52.564Z,0
2017-12-19T19:57:01.380Z,0
2017-12-19T19:58:10.184Z,0
2017-12-19T19:59:19.524Z,0
2017-12-19T20:00:28.590Z,0
2017-12-19T20:01:37.177Z,0
2017-12-19T20:02:45.710Z,0
2017-12-19T20:03:54.514Z,0
2017-12-19T20:05:03.319Z,0
2017-12-19T20:06:11.851Z,0
2017-12-19T20:07:20.383Z,0
2017-12-19T20:08:29.183Z,0
2017-12-19T20:09:37.719Z,0
2017-12-19T20:10:46.523Z,0
2017-12-19T20:11:55.056Z,0
2017-12-19T20:13:03.591Z,0
2017-12-19T20:14:12.421Z,0
2017-12-19T20:15:21.486Z,0
2017-12-19T20:16:30.019Z,0
2017-12-19T20:17:38.601Z,0
2017-12-19T20:18:47.416Z,0
2017-12-19T20:19:55.949Z,0
2017-12-19T20:21:04.482Z,0
2017-12-19T20:22:13.018Z,0
2017-12-19T20:23:21.820Z,0
2017-12-19T20:24:30.354Z,0
2017-12-19T20:25:39.157Z,0
2017-12-19T20:26:47.692Z,0
2017-12-19T20:27:56.514Z,0
2017-12-19T20:29:05.632Z,0
2017-12-19T20:30:14.437Z,0
2017-12-19T20:31:22.972Z,0
2017-12-19T20:32:31.774Z,0
2017-12-19T20:33:40.310Z,0
2017-12-19T20:34:48.842Z,0
2017-12-19T20:35:57.378Z,0
2017-12-19T20:37:06.180Z,0
2017-12-19T20:38:15.281Z,0
2017-12-19T20:39:23.819Z,0
2017-12-19T20:40:32.671Z,0
2017-12-19T20:41:41.752Z,0
2017-12-19T20:42:50.282Z,0
2017-12-19T20:43:58.815Z,0
2017-12-19T20:45:07.354Z,0
2017-12-19T20:46:16.206Z,0
2017-12-19T20:47:25.006Z,0
2017-12-19T20:48:33.805Z,0
2017-12-19T20:49:42.876Z,0
2017-12-19T20:50:51.406Z,0
2017-12-19T20:52:00.211Z,0
2017-12-19T20:53:09.287Z,0
2017-12-19T20:54:18.089Z,0
2017-12-19T20:55:26.623Z,0
2017-12-19T20:56:35.420Z,0
2017-12-19T20:57:44.332Z,0
2017-12-19T20:58:52.863Z,0
2017-12-19T21:00:01.400Z,0
2017-12-19T21:01:10.467Z,0
2017-12-19T21:02:19.802Z,0
2017-12-19T21:03:28.335Z,0
2017-12-19T21:04:37.182Z,0
2017-12-19T21:05:45.982Z,0
2017-12-19T21:06:54.518Z,0
2017-12-19T21:08:03.862Z,0
2017-12-19T21:09:12.712Z,0
2017-12-19T21:10:21.245Z,0
2017-12-19T21:11:29.778Z,0
2017-12-19T21:12:38.581Z,0
2017-12-19T21:13:47.383Z,0
2017-12-19T21:14:56.183Z,0
2017-12-19T21:16:04.986Z,0
2017-12-19T21:17:13.864Z,0
2017-12-19T21:18:22.670Z,0
2017-12-19T21:19:31.204Z,0
2017-12-19T21:20:40.583Z,0
2017-12-19T21:21:49.384Z,0
2017-12-19T21:22:57.916Z,0
2017-12-19T21:24:06.727Z,0
2017-12-19T21:25:15.532Z,0
2017-12-19T21:26:24.383Z,0
2017-12-19T21:27:33.449Z,0
2017-12-19T21:28:42.247Z,0
2017-12-19T21:29:51.619Z,0
2017-12-19T21:31:00.713Z,0
2017-12-19T21:32:09.833Z,0
2017-12-19T21:33:18.365Z,0
2017-12-19T21:34:26.898Z,0
2017-12-19T21:35:35.700Z,0
2017-12-19T21:36:44.502Z,0
2017-12-19T21:37:53.085Z,0
2017-12-19T21:39:01.619Z,0
2017-12-19T21:40:10.418Z,0
2017-12-19T21:41:18.953Z,0
2017-12-19T21:42:27.483Z,0
2017-12-19T21:43:36.552Z,0
2017-12-19T21:44:45.353Z,0
2017-12-19T21:45:53.887Z,0
2017-12-19T21:47:02.417Z,0
2017-12-19T21:48:11.215Z,0
2017-12-19T21:49:20.287Z,0
2017-12-19T21:50:29.353Z,0
2017-12-19T21:51:38.154Z,0
2017-12-19T21:52:46.953Z,0
2017-12-19T21:53:55.753Z,0
2017-12-19T21:55:04.605Z,0
2017-12-19T21:56:13.408Z,0
2017-12-19T21:57:21.946Z,0
2017-12-19T21:58:30.747Z,0
2017-12-19T21:59:39.283Z,0
2017-12-19T22:00:48.356Z,0
2017-12-19T22:01:57.153Z,0
2017-12-19T22:03:05.960Z,0
2017-12-19T22:04:15.026Z,0
2017-12-19T22:05:23.559Z,0
2017-12-19T22:06:32.413Z,0
2017-12-19T22:07:41.213Z,0
2017-12-19T22:08:49.747Z,0
2017-12-19T22:09:58.546Z,0
2017-12-19T22:11:07.342Z,0
2017-12-19T22:12:15.875Z,0
2017-12-19T22:13:24.673Z,0
2017-12-19T22:14:33.477Z,0
2017-12-19T22:15:42.010Z,0
2017-12-19T22:16:51.075Z,0
2017-12-19T22:17:59.876Z,0
2017-12-19T22:19:09.262Z,0
2017-12-19T22:20:18.330Z,0
2017-12-19T22:21:26.865Z,0
2017-12-19T22:22:35.666Z,0
2017-12-19T22:23:44.797Z,0
2017-12-19T22:24:53.862Z,0
2017-12-19T22:26:02.936Z,0
2017-12-19T22:27:11.736Z,0
2017-12-19T22:28:20.870Z,0
2017-12-19T22:29:29.938Z,0
2017-12-19T22:30:38.476Z,0
2017-12-19T22:31:47.811Z,0
2017-12-19T22:32:57.144Z,0
2017-12-19T22:34:06.213Z,0
2017-12-19T22:35:15.346Z,0
2017-12-19T22:36:24.532Z,0
2017-12-19T22:37:33.064Z,0
2017-12-19T22:38:42.128Z,0
2017-12-19T22:39:50.928Z,0
2017-12-19T22:40:59.729Z,0
2017-12-19T22:42:08.261Z,0
2017-12-19T22:43:17.060Z,0
2017-12-19T22:44:26.123Z,0
2017-12-19T22:45:34.921Z,0
2017-12-19T22:46:43.506Z,0
2017-12-19T22:47:52.037Z,0
2017-12-19T22:49:01.112Z,0
2017-12-19T22:50:10.176Z,0
2017-12-19T22:51:19.244Z,0
2017-12-19T22:52:28.359Z,0
2017-12-19T22:53:37.160Z,0
2017-12-19T22:54:46.228Z,0
2017-12-19T22:55:55.026Z,0
2017-12-19T22:57:03.826Z,0
2017-12-19T22:58:12.361Z,0
2017-12-19T22:59:21.164Z,0
2017-12-19T23:00:29.692Z,0
2017-12-19T23:01:38.490Z,0
2017-12-19T23:02:47.360Z,0
2017-12-19T23:03:55.943Z,0
2017-12-19T23:05:05.010Z,0
2017-12-19T23:06:13.543Z,0
2017-12-19T23:07:22.076Z,0
2017-12-19T23:08:30.609Z,0
2017-12-19T23:09:39.410Z,0
2017-12-19T23:10:47.943Z,0
2017-12-19T23:11:56.745Z,0
2017-12-19T23:13:05.282Z,0
2017-12-19T23:14:13.816Z,0
2017-12-19T23:15:22.401Z,0
2017-12-19T23:16:31.200Z,0
2017-12-19T23:17:39.732Z,0
2017-12-19T23:18:48.802Z,0
2017-12-19T23:19:57.601Z,0
2017-12-19T23:21:06.405Z,0
2017-12-19T23:22:14.937Z,0
2017-12-19T23:23:24.011Z,0
2017-12-19T23:24:33.613Z,0
2017-12-19T23:25:42.676Z,0
2017-12-19T23:26:51.753Z,0
2017-12-19T23:28:00.284Z,0
2017-12-19T23:29:09.086Z,0
2017-12-19T23:30:17.885Z,0
2017-12-19T23:31:26.419Z,0
2017-12-19T23:32:35.270Z,0
2017-12-19T23:33:43.805Z,0
2017-12-19T23:34:52.341Z,0
2017-12-19T23:36:00.873Z,0
2017-12-19T23:37:09.451Z,0
2017-12-19T23:38:18.261Z,0
2017-12-19T23:39:27.060Z,0
2017-12-19T23:40:35.593Z,0